Time;durP1;ratioP1;P1;durP2;ratioP2;P2;SDS_P1;SDS_P2;PMS_P1;PMS_P2;Temp;Humidity;BMP_temperature;BMP_pressure;BME280_temperature;BME280_humidity;BME280_pressure;Samples;Min_cycle;Max_cycle;Signal;HPM_P1;HPM_P2
2023/05/25 00:01:15;;;;;;;6.78;0.70;;;9.30;99.90;;;;;;5052732;28;20028;-73
2023/05/25 00:03:41;;;;;;;4.07;1.10;;;9.30;99.90;;;;;;5034976;28;20021;-73
2023/05/25 00:06:07;;;;;;;5.85;0.80;;;9.20;99.90;;;;;;5035347;28;20025;-73
2023/05/25 00:08:32;;;;;;;7.10;1.08;;;9.10;99.90;;;;;;5053253;28;20074;-74
2023/05/25 00:10:58;;;;;;;5.47;0.65;;;9.10;99.90;;;;;;5053086;28;20017;-73
2023/05/25 00:13:23;;;;;;;3.78;0.47;;;9.20;99.90;;;;;;5053145;28;20427;-74
2023/05/25 00:15:49;;;;;;;10.48;1.13;;;8.90;99.90;;;;;;5053192;28;20471;-73
2023/05/25 00:18:15;;;;;;;7.25;0.40;;;8.90;99.90;;;;;;5035138;28;20383;-73
2023/05/25 00:20:40;;;;;;;4.65;0.73;;;8.90;99.90;;;;;;5035354;28;20079;-73
2023/05/25 00:23:06;;;;;;;8.50;1.60;;;8.80;99.90;;;;;;5053606;28;20431;-74
2023/05/25 00:25:31;;;;;;;6.78;1.45;;;8.80;99.90;;;;;;5056848;28;20545;-73
2023/05/25 00:27:57;;;;;;;3.58;0.80;;;8.80;99.90;;;;;;5038750;28;20048;-74
2023/05/25 00:30:22;;;;;;;4.55;0.60;;;8.80;99.90;;;;;;5057255;28;20013;-74
2023/05/25 00:32:48;;;;;;;1.98;0.30;;;8.80;99.90;;;;;;5056707;28;20027;-73
2023/05/25 00:35:14;;;;;;;3.33;0.68;;;8.80;99.90;;;;;;5056488;28;20045;-73
2023/05/25 00:37:40;;;;;;;4.10;1.15;;;8.70;99.90;;;;;;5056758;28;20055;-73
2023/05/25 00:40:09;;;;;;;2.88;0.45;;;8.70;99.90;;;;;;5057151;28;20025;-73
2023/05/25 00:42:38;;;;;;;4.65;0.68;;;8.70;99.90;;;;;;5038771;28;20045;-73
2023/05/25 00:45:04;;;;;;;4.75;0.88;;;8.60;99.90;;;;;;5056227;28;20017;-73
2023/05/25 00:47:30;;;;;;;6.07;0.70;;;8.60;99.90;;;;;;5038728;28;20119;-73
2023/05/25 00:49:56;;;;;;;6.00;1.23;;;8.50;99.90;;;;;;5056207;28;20028;-73
2023/05/25 00:52:22;;;;;;;6.72;0.70;;;10.00;99.90;;;;;;5057116;28;20025;-71
2023/05/25 00:54:52;;;;;;;6.30;1.02;;;8.60;99.90;;;;;;5056687;28;20527;-73
2023/05/25 00:57:22;;;;;;;6.90;0.80;;;8.50;99.90;;;;;;5056057;28;20064;-73
2023/05/25 00:59:52;;;;;;;5.05;1.08;;;8.40;99.90;;;;;;5056287;28;20388;-73
2023/05/25 01:02:18;;;;;;;8.02;0.65;;;8.40;99.90;;;;;;5056580;28;20021;-73
2023/05/25 01:04:48;;;;;;;4.63;0.73;;;8.40;99.90;;;;;;5038290;28;20364;-73
2023/05/25 01:07:22;;;;;;;3.58;0.65;;;8.30;99.90;;;;;;5038459;28;20013;-72
2023/05/25 01:09:53;;;;;;;5.40;0.65;;;8.30;99.90;;;;;;5038930;28;20032;-73
2023/05/25 01:12:21;;;;;;;4.90;0.50;;;8.20;99.90;;;;;;5039188;28;20035;-73
2023/05/25 01:14:47;;;;;;;6.82;0.60;;;8.20;99.90;;;;;;5056264;28;20056;-73
2023/05/25 01:17:14;;;;;;;5.70;0.50;;;8.10;99.90;;;;;;5056959;28;20403;-73
2023/05/25 01:19:40;;;;;;;3.85;0.77;;;8.10;99.90;;;;;;5038451;28;20395;-73
2023/05/25 01:22:14;;;;;;;6.97;0.75;;;8.10;99.90;;;;;;5039006;28;20021;-73
2023/05/25 01:24:50;;;;;;;4.53;0.70;;;8.00;99.90;;;;;;5056025;28;20036;-73
2023/05/25 01:27:18;;;;;;;3.85;0.50;;;8.00;99.90;;;;;;5038190;28;20021;-73
2023/05/25 01:29:47;;;;;;;5.68;0.82;;;8.00;99.90;;;;;;5056288;28;20025;-73
2023/05/25 01:32:12;;;;;;;6.30;1.70;;;8.00;99.90;;;;;;5055967;28;20100;-73
2023/05/25 01:34:40;;;;;;;7.68;0.63;;;8.00;99.90;;;;;;5055657;28;20064;-74
2023/05/25 01:37:12;;;;;;;5.35;0.77;;;7.90;99.90;;;;;;5056259;28;20105;-71
2023/05/25 01:39:38;;;;;;;5.30;0.70;;;7.90;99.90;;;;;;5056549;28;20048;-71
2023/05/25 01:42:04;;;;;;;8.75;0.98;;;7.80;99.90;;;;;;5038268;28;20028;-71
2023/05/25 01:44:29;;;;;;;5.90;1.70;;;7.80;99.90;;;;;;5056036;28;20033;-71
2023/05/25 01:47:20;;;;;;;8.80;1.27;;;7.80;99.90;;;;;;5056649;28;20017;-71
2023/05/25 01:49:57;;;;;;;5.55;1.27;;;7.70;99.90;;;;;;5054914;28;20119;-71
2023/05/25 01:52:29;;;;;;;10.40;1.17;;;7.70;99.90;;;;;;5055270;28;20021;-74
2023/05/25 01:55:21;;;;;;;5.82;1.65;;;7.70;99.90;;;;;;5055506;28;20021;-72
2023/05/25 01:57:49;;;;;;;4.32;0.77;;;7.70;99.90;;;;;;5052419;28;20033;-72
2023/05/25 02:00:18;;;;;;;5.78;0.68;;;7.70;99.90;;;;;;5055692;28;20029;-72
2023/05/25 02:02:46;;;;;;;4.88;0.98;;;7.60;99.90;;;;;;5055834;28;20107;-72
2023/05/25 02:05:12;;;;;;;5.83;1.10;;;7.60;99.90;;;;;;5056062;28;20017;-72
2023/05/25 02:07:38;;;;;;;7.95;0.90;;;7.60;99.90;;;;;;5038151;28;20271;-72
2023/05/25 02:10:04;;;;;;;9.00;2.15;;;7.50;99.90;;;;;;5038171;28;20021;-72
2023/05/25 02:12:30;;;;;;;6.63;1.08;;;7.50;99.90;;;;;;5038357;28;20013;-72
2023/05/25 02:14:55;;;;;;;6.13;0.93;;;7.50;99.90;;;;;;5038033;28;20036;-72
2023/05/25 02:17:21;;;;;;;6.00;1.35;;;7.50;99.90;;;;;;5055690;28;20434;-72
2023/05/25 02:19:49;;;;;;;7.05;0.90;;;7.50;99.90;;;;;;5038009;28;20031;-72
2023/05/25 02:22:15;;;;;;;8.52;1.50;;;7.50;99.90;;;;;;5037639;28;20024;-72
2023/05/25 02:24:41;;;;;;;6.32;1.40;;;7.40;99.90;;;;;;5037966;28;20032;-72
2023/05/25 02:27:06;;;;;;;12.60;1.85;;;7.40;99.90;;;;;;5037683;28;20037;-72
2023/05/25 02:29:32;;;;;;;8.07;1.73;;;7.40;99.90;;;;;;5055416;28;20096;-72
2023/05/25 02:31:58;;;;;;;8.85;1.58;;;7.40;99.90;;;;;;5054735;28;20067;-72
2023/05/25 02:34:23;;;;;;;3.47;1.00;;;7.40;99.90;;;;;;5054762;28;20029;-72
2023/05/25 02:36:49;;;;;;;7.68;1.33;;;7.40;99.90;;;;;;5036622;28;20061;-72
2023/05/25 02:39:15;;;;;;;8.68;1.02;;;7.40;99.90;;;;;;5054931;28;20036;-72
2023/05/25 02:41:41;;;;;;;4.07;1.58;;;7.40;99.90;;;;;;5054811;28;20021;-72
2023/05/25 02:44:06;;;;;;;5.07;1.35;;;7.40;99.90;;;;;;5054529;28;20025;-73
2023/05/25 02:46:32;;;;;;;5.18;1.33;;;7.40;99.90;;;;;;5054289;28;20017;-72
2023/05/25 02:48:59;;;;;;;3.28;0.63;;;7.30;99.90;;;;;;5054240;28;20070;-72
2023/05/25 02:51:25;;;;;;;2.70;0.68;;;7.30;99.90;;;;;;5054418;28;20100;-72
2023/05/25 02:53:51;;;;;;;2.63;0.68;;;7.20;99.90;;;;;;5054379;28;20075;-72
2023/05/25 02:56:16;;;;;;;4.65;0.50;;;7.20;99.90;;;;;;5054385;28;20029;-72
2023/05/25 02:58:42;;;;;;;4.22;0.63;;;7.10;99.90;;;;;;5036613;28;20031;-73
2023/05/25 03:01:09;;;;;;;9.57;1.77;;;7.10;99.90;;;;;;5054208;28;20029;-72
2023/05/25 03:03:36;;;;;;;5.47;1.25;;;7.10;99.90;;;;;;5054514;28;20078;-72
2023/05/25 03:06:03;;;;;;;3.47;0.90;;;7.10;99.90;;;;;;5035945;28;20028;-72
2023/05/25 03:08:29;;;;;;;12.10;0.90;;;7.00;99.90;;;;;;5053983;28;20488;-72
2023/05/25 03:10:55;;;;;;;5.10;0.77;;;7.00;99.90;;;;;;5036207;28;20364;-72
2023/05/25 03:13:20;;;;;;;4.82;1.20;;;7.00;99.90;;;;;;5036225;28;20024;-72
2023/05/25 03:15:46;;;;;;;3.45;0.50;;;6.90;99.90;;;;;;5053986;28;20036;-72
2023/05/25 03:18:11;;;;;;;2.63;0.90;;;6.80;99.90;;;;;;5053839;28;20044;-72
2023/05/25 03:20:37;;;;;;;6.45;1.45;;;6.80;99.90;;;;;;5054059;28;20028;-72
2023/05/25 03:23:03;;;;;;;6.82;1.42;;;6.80;99.90;;;;;;5054215;28;20100;-72
2023/05/25 03:25:28;;;;;;;7.63;1.48;;;6.70;99.90;;;;;;5036285;28;20029;-72
2023/05/25 03:27:54;;;;;;;7.30;1.15;;;6.70;99.90;;;;;;5054009;28;20414;-72
2023/05/25 03:30:21;;;;;;;5.55;1.50;;;6.70;99.90;;;;;;5054691;28;20021;-72
2023/05/25 03:32:47;;;;;;;5.68;1.55;;;6.70;99.90;;;;;;5053547;28;20435;-72
2023/05/25 03:35:13;;;;;;;8.20;1.23;;;6.70;99.90;;;;;;5053940;28;20033;-72
2023/05/25 03:37:38;;;;;;;8.30;1.75;;;6.70;99.90;;;;;;5054216;28;20484;-72
2023/05/25 03:40:05;;;;;;;6.18;1.08;;;6.70;99.90;;;;;;5053792;28;20143;-72
2023/05/25 03:42:30;;;;;;;3.20;1.23;;;6.70;99.90;;;;;;5054551;28;20022;-72
2023/05/25 03:44:56;;;;;;;6.30;1.38;;;6.70;99.90;;;;;;5053628;28;20033;-72
2023/05/25 03:47:21;;;;;;;6.45;1.30;;;6.70;99.90;;;;;;5053883;28;20044;-72
2023/05/25 03:49:47;;;;;;;6.25;1.27;;;6.70;99.90;;;;;;5053853;28;20083;-72
2023/05/25 03:52:12;;;;;;;7.72;1.30;;;6.70;99.90;;;;;;5036016;28;20021;-72
2023/05/25 03:54:38;;;;;;;5.15;1.50;;;6.80;99.90;;;;;;5035893;28;20031;-72
2023/05/25 03:57:03;;;;;;;5.03;1.05;;;6.80;99.90;;;;;;5053752;28;20059;-72
2023/05/25 03:59:30;;;;;;;5.75;1.35;;;6.80;99.90;;;;;;5056458;28;20071;-72
2023/05/25 04:01:55;;;;;;;4.57;1.20;;;6.80;99.90;;;;;;5057955;28;20099;-72
2023/05/25 04:04:21;;;;;;;6.30;1.58;;;6.90;99.90;;;;;;5039237;28;20053;-72
2023/05/25 04:06:47;;;;;;;5.43;1.50;;;6.90;99.90;;;;;;5057905;28;20028;-72
2023/05/25 04:09:14;;;;;;;8.93;1.38;;;6.90;99.90;;;;;;5057794;28;20058;-73
2023/05/25 04:11:40;;;;;;;6.35;1.15;;;;;;;;;;5057327;28;20025;-72
2023/05/25 04:14:05;;;;;;;6.43;1.05;;;7.00;99.90;;;;;;5057772;28;20053;-73
2023/05/25 04:16:31;;;;;;;6.72;1.65;;;7.20;99.90;;;;;;5057134;28;20017;-72
2023/05/25 04:18:57;;;;;;;6.32;1.75;;;7.20;99.90;;;;;;5056636;28;20083;-72
2023/05/25 04:21:22;;;;;;;2.15;0.73;;;7.30;99.90;;;;;;5057403;28;20017;-72
2023/05/25 04:23:48;;;;;;;2.33;0.88;;;7.30;99.90;;;;;;5039358;28;20025;-72
2023/05/25 04:26:15;;;;;;;5.18;1.00;;;7.40;99.90;;;;;;5057240;28;20484;-72
2023/05/25 04:28:41;;;;;;;3.42;0.80;;;7.40;99.90;;;;;;5056848;28;20388;-72
2023/05/25 04:31:07;;;;;;;3.58;1.38;;;7.40;99.90;;;;;;5039493;28;20017;-72
2023/05/25 04:33:37;;;;;;;5.05;1.88;;;;;;;;;;5039277;28;20017;-72
2023/05/25 04:36:09;;;;;;;6.88;1.90;;;7.60;99.90;;;;;;5056728;28;20021;-72
2023/05/25 04:38:36;;;;;;;6.07;1.50;;;7.70;99.90;;;;;;5038933;28;20438;-72
2023/05/25 04:41:01;;;;;;;6.00;1.27;;;7.70;99.90;;;;;;5057755;28;20383;-72
2023/05/25 04:43:28;;;;;;;3.90;1.30;;;7.80;99.90;;;;;;5056689;28;20025;-72
2023/05/25 04:45:55;;;;;;;4.13;1.30;;;7.90;99.90;;;;;;5057464;28;20031;-72
2023/05/25 04:48:21;;;;;;;6.30;1.58;;;8.00;99.90;;;;;;5057239;28;20013;-72
2023/05/25 04:50:47;;;;;;;5.53;1.50;;;8.00;99.90;;;;;;5057003;28;20430;-72
2023/05/25 04:53:12;;;;;;;8.65;2.25;;;8.10;99.90;;;;;;5039228;28;20068;-72
2023/05/25 04:55:38;;;;;;;7.53;1.65;;;8.20;99.90;;;;;;5056915;28;20029;-72
2023/05/25 04:58:04;;;;;;;7.05;1.40;;;8.40;99.90;;;;;;5056970;28;20025;-72
2023/05/25 05:00:30;;;;;;;5.32;1.40;;;8.50;99.90;;;;;;5056728;28;20376;-72
2023/05/25 05:02:57;;;;;;;7.15;1.90;;;8.60;99.90;;;;;;5056598;28;20475;-72
2023/05/25 05:05:23;;;;;;;5.45;2.65;;;9.30;99.90;;;;;;5038673;28;20499;-72
2023/05/25 05:07:49;;;;;;;8.02;1.65;;;9.00;99.90;;;;;;5038153;28;20021;-72
2023/05/25 05:10:14;;;;;;;9.75;2.60;;;9.00;99.90;;;;;;5055411;28;20027;-72
2023/05/25 05:12:40;;;;;;;12.40;1.95;;;9.20;99.90;;;;;;5056278;28;20101;-72
2023/05/25 05:15:06;;;;;;;12.75;2.55;;;9.30;99.90;;;;;;5056484;28;20036;-72
2023/05/25 05:17:32;;;;;;;8.15;2.53;;;9.60;99.90;;;;;;5055889;28;20519;-72
2023/05/25 05:19:58;;;;;;;7.00;2.50;;;9.60;99.90;;;;;;5055697;28;20083;-72
2023/05/25 05:22:23;;;;;;;9.63;1.85;;;9.70;99.90;;;;;;5055695;28;20029;-72
2023/05/25 05:24:49;;;;;;;8.88;2.40;;;9.90;99.90;;;;;;5055424;28;20079;-72
2023/05/25 05:27:15;;;;;;;6.05;1.77;;;10.00;99.90;;;;;;5037424;28;20108;-72
2023/05/25 05:29:41;;;;;;;9.77;2.58;;;10.10;99.90;;;;;;5037259;28;20019;-73
2023/05/25 05:32:07;;;;;;;11.80;2.50;;;10.20;99.90;;;;;;5037240;28;20491;-74
2023/05/25 05:34:33;;;;;;;11.50;2.85;;;10.30;99.90;;;;;;5055010;28;20033;-73
2023/05/25 05:36:59;;;;;;;10.07;2.25;;;10.40;99.90;;;;;;5054842;28;20454;-74
2023/05/25 05:39:26;;;;;;;7.55;1.55;;;10.60;99.90;;;;;;5054589;28;20025;-73
2023/05/25 05:41:52;;;;;;;13.80;2.60;;;10.70;99.90;;;;;;5036794;28;20057;-74
2023/05/25 05:44:20;;;;;;;11.77;1.63;;;10.80;99.90;;;;;;5054558;28;20056;-73
2023/05/25 05:46:45;;;;;;;8.35;2.85;;;11.00;99.90;;;;;;5054537;28;20056;-73
2023/05/25 05:49:11;;;;;;;7.93;3.03;;;11.00;99.90;;;;;;5036508;28;20048;-75
2023/05/25 05:51:36;;;;;;;10.30;2.30;;;11.20;99.90;;;;;;5054409;28;20013;-73
2023/05/25 05:54:02;;;;;;;10.07;2.05;;;11.20;99.90;;;;;;5054396;28;20036;-73
2023/05/25 05:56:28;;;;;;;6.90;2.58;;;11.40;99.90;;;;;;5054295;28;20025;-73
2023/05/25 05:58:54;;;;;;;12.02;2.08;;;11.50;99.90;;;;;;5054153;28;20044;-74
2023/05/25 06:01:20;;;;;;;14.52;1.90;;;11.60;99.90;;;;;;5052544;28;20032;-73
2023/05/25 06:03:46;;;;;;;17.00;2.80;;;11.80;99.90;;;;;;5034640;28;20083;-73
2023/05/25 06:06:12;;;;;;;15.18;3.35;;;12.10;99.90;;;;;;5053317;28;20488;-73
2023/05/25 06:08:39;;;;;;;9.55;2.90;;;12.00;99.90;;;;;;5035557;28;20116;-73
2023/05/25 06:11:05;;;;;;;8.27;2.75;;;12.10;99.90;;;;;;5053067;28;20017;-73
2023/05/25 06:13:31;;;;;;;8.20;1.73;;;12.20;99.90;;;;;;5054039;28;20431;-73
2023/05/25 06:15:57;;;;;;;14.95;2.83;;;12.30;99.90;;;;;;5053820;28;20169;-73
2023/05/25 06:18:22;;;;;;;6.95;2.25;;;12.50;99.90;;;;;;5053606;28;20064;-73
2023/05/25 06:20:48;;;;;;;9.82;2.53;;;12.60;99.90;;;;;;5053501;28;20081;-73
2023/05/25 06:23:13;;;;;;;16.33;2.65;;;12.70;99.90;;;;;;5035887;28;20476;-73
2023/05/25 06:25:39;;;;;;;11.27;2.40;;;13.40;99.90;;;;;;5053682;28;20540;-74
2023/05/25 06:28:05;;;;;;;10.10;3.53;;;12.90;99.90;;;;;;5035822;28;20403;-74
2023/05/25 06:30:31;;;;;;;12.63;3.45;;;12.90;99.90;;;;;;5053651;28;20476;-74
2023/05/25 06:32:56;;;;;;;13.95;2.58;;;13.70;99.90;;;;;;5053666;28;20013;-74
2023/05/25 06:35:22;;;;;;;10.77;2.05;;;13.10;99.90;;;;;;5054141;28;20021;-74
2023/05/25 06:37:48;;;;;;;9.48;2.50;;;13.20;99.90;;;;;;5053493;28;20112;-74
2023/05/25 06:40:14;;;;;;;8.63;2.30;;;13.20;99.90;;;;;;5054003;28;20020;-74
2023/05/25 06:42:41;;;;;;;11.20;2.75;;;13.20;99.90;;;;;;5035600;28;20025;-75
2023/05/25 06:45:07;;;;;;;8.05;1.65;;;13.30;99.90;;;;;;5035541;28;20120;-75
2023/05/25 06:47:32;;;;;;;12.13;1.58;;;13.40;99.90;;;;;;5053364;28;20075;-74
2023/05/25 06:49:59;;;;;;;13.90;2.60;;;13.50;99.90;;;;;;5053331;28;20025;-75
2023/05/25 06:52:27;;;;;;;7.90;2.72;;;13.60;99.90;;;;;;5035490;28;20024;-75
2023/05/25 06:54:52;;;;;;;7.80;2.33;;;13.70;99.90;;;;;;5053342;28;20392;-75
2023/05/25 06:57:18;;;;;;;8.30;1.45;;;13.70;99.90;;;;;;5053200;28;20270;-75
2023/05/25 06:59:44;;;;;;;7.97;1.00;;;13.80;99.90;;;;;;5053220;28;20036;-74
2023/05/25 07:02:10;;;;;;;5.13;1.02;;;13.80;99.90;;;;;;5035309;28;20032;-74
2023/05/25 07:04:36;;;;;;;8.35;1.50;;;13.80;99.90;;;;;;5053270;28;20025;-74
2023/05/25 07:07:01;;;;;;;11.00;2.15;;;13.80;99.90;;;;;;5053734;28;20017;-74
2023/05/25 07:09:27;;;;;;;7.38;1.02;;;13.90;99.90;;;;;;5053072;28;20373;-74
2023/05/25 07:11:53;;;;;;;8.25;1.85;;;;;;;;;;5053697;28;20021;-74
2023/05/25 07:14:21;;;;;;;7.80;1.73;;;14.20;99.90;;;;;;5035258;28;20399;-75
2023/05/25 07:16:47;;;;;;;8.85;1.40;;;14.40;99.90;;;;;;5053099;28;20025;-75
2023/05/25 07:19:13;;;;;;;6.93;0.95;;;14.60;99.90;;;;;;5052886;28;20083;-74
2023/05/25 07:21:38;;;;;;;6.55;1.63;;;14.70;99.90;;;;;;5052997;28;20025;-74
2023/05/25 07:24:04;;;;;;;10.70;0.80;;;14.80;99.90;;;;;;5053585;28;20086;-74
2023/05/25 07:26:31;;;;;;;6.78;1.40;;;14.80;99.90;;;;;;5035193;28;20013;-74
2023/05/25 07:28:57;;;;;;;7.90;1.40;;;15.10;99.90;;;;;;5052919;28;20036;-74
2023/05/25 07:31:22;;;;;;;9.60;1.10;;;15.20;99.90;;;;;;5035176;28;20022;-74
2023/05/25 07:33:48;;;;;;;7.28;0.93;;;15.20;99.90;;;;;;5054931;28;20028;-74
2023/05/25 07:36:14;;;;;;;9.35;1.00;;;15.00;99.90;;;;;;5057488;28;20037;-74
2023/05/25 07:38:40;;;;;;;9.23;1.52;;;14.90;99.90;;;;;;5056856;28;20025;-74
2023/05/25 07:41:05;;;;;;;7.47;0.80;;;14.90;99.90;;;;;;5057421;28;20037;-74
2023/05/25 07:43:31;;;;;;;6.90;0.88;;;15.00;99.90;;;;;;5056855;28;20017;-74
2023/05/25 07:45:56;;;;;;;6.30;0.80;;;15.20;99.90;;;;;;5056764;28;20463;-74
2023/05/25 07:48:22;;;;;;;3.08;0.60;;;15.50;99.90;;;;;;5038755;28;20017;-74
2023/05/25 07:50:48;;;;;;;10.05;0.90;;;15.70;99.90;;;;;;5038702;28;20023;-74
2023/05/25 07:53:13;;;;;;;5.93;1.05;;;15.90;99.90;;;;;;5057129;28;20021;-74
2023/05/25 07:55:39;;;;;;;3.83;0.57;;;15.90;99.90;;;;;;5038841;28;20124;-74
2023/05/25 07:58:06;;;;;;;3.08;0.57;;;16.10;99.90;;;;;;5057025;28;20056;-74
2023/05/25 08:00:32;;;;;;;2.58;0.30;;;16.10;99.90;;;;;;5056502;28;20021;-74
2023/05/25 08:02:57;;;;;;;4.13;0.35;;;16.10;99.90;;;;;;5038857;28;20059;-74
2023/05/25 08:05:23;;;;;;;4.35;0.82;;;16.10;99.90;;;;;;5038510;28;20115;-74
2023/05/25 08:07:49;;;;;;;16.05;1.45;;;16.20;99.90;;;;;;5056298;28;20096;-74
2023/05/25 08:10:15;;;;;;;6.80;0.57;;;16.20;99.90;;;;;;5038459;28;20020;-74
2023/05/25 08:12:41;;;;;;;5.25;0.80;;;16.20;99.90;;;;;;5056382;28;20468;-74
2023/05/25 08:15:07;;;;;;;8.38;1.30;;;16.20;99.90;;;;;;5038410;28;20033;-74
2023/05/25 08:17:32;;;;;;;1.60;0.40;;;16.40;99.90;;;;;;5056114;28;20062;-74
2023/05/25 08:19:58;;;;;;;6.57;1.10;;;16.50;99.90;;;;;;5038196;28;20025;-74
2023/05/25 08:22:23;;;;;;;2.35;1.10;;;16.70;99.90;;;;;;5056178;28;20028;-74
2023/05/25 08:24:49;;;;;;;4.97;1.50;;;16.80;99.90;;;;;;5038228;28;20120;-74
2023/05/25 08:27:15;;;;;;;3.22;0.43;;;16.90;99.90;;;;;;5038170;28;20151;-74
2023/05/25 08:29:40;;;;;;;4.85;0.30;;;17.00;99.90;;;;;;5056586;28;20467;-74
2023/05/25 08:32:07;;;;;;;5.55;0.63;;;17.10;99.90;;;;;;5056147;28;20021;-74
2023/05/25 08:34:33;;;;;;;3.35;0.55;;;17.50;99.90;;;;;;5055931;28;20021;-74
2023/05/25 08:36:58;;;;;;;4.60;0.30;;;17.60;99.90;;;;;;5056441;28;20017;-74
2023/05/25 08:39:24;;;;;;;3.88;0.50;;;17.60;99.90;;;;;;5055892;28;20036;-74
2023/05/25 08:41:50;;;;;;;7.53;0.73;;;17.60;99.90;;;;;;5055791;28;20430;-74
2023/05/25 08:44:16;;;;;;;4.63;0.63;;;17.60;99.90;;;;;;5055583;28;20379;-74
2023/05/25 08:46:42;;;;;;;4.47;0.38;;;17.80;99.90;;;;;;5055770;28;20109;-74
2023/05/25 08:49:12;;;;;;;4.75;0.93;;;17.90;99.90;;;;;;5055766;28;20027;-74
2023/05/25 08:51:50;;;;;;;6.43;0.28;;;17.90;99.90;;;;;;5037958;28;20021;-74
2023/05/25 08:54:23;;;;;;;7.13;0.40;;;17.80;99.90;;;;;;5055663;28;20040;-74
2023/05/25 08:56:52;;;;;;;6.65;0.80;;;18.10;99.90;;;;;;5055460;28;20171;-74
2023/05/25 08:59:25;;;;;;;3.58;0.63;;;18.20;99.90;;;;;;5055530;28;20021;-74
2023/05/25 09:01:57;;;;;;;3.50;0.25;;;18.30;99.90;;;;;;5056022;28;20029;-74
2023/05/25 09:04:24;;;;;;;3.80;0.55;;;18.30;99.90;;;;;;5055368;28;20108;-74
2023/05/25 09:06:50;;;;;;;2.40;0.32;;;18.10;99.90;;;;;;5055453;28;20061;-74
2023/05/25 09:09:16;;;;;;;5.47;0.47;;;18.00;99.90;;;;;;5055286;28;20021;-74
2023/05/25 09:11:43;;;;;;;5.80;0.63;;;18.10;99.90;;;;;;5055341;28;20013;-74
2023/05/25 09:14:10;;;;;;;3.35;0.30;;;18.00;99.90;;;;;;5055240;28;20025;-74
2023/05/25 09:16:39;;;;;;;1.60;0.32;;;18.10;99.90;;;;;;5055735;28;20464;-74
2023/05/25 09:19:05;;;;;;;3.47;0.50;;;18.00;99.90;;;;;;5037093;28;20395;-74
2023/05/25 09:21:30;;;;;;;5.45;0.50;;;18.00;99.90;;;;;;5037212;28;20028;-74
2023/05/25 09:23:57;;;;;;;7.95;0.52;;;17.90;99.90;;;;;;5055590;28;20021;-74
2023/05/25 09:26:23;;;;;;;2.78;0.47;;;17.70;99.90;;;;;;5037142;28;20040;-74
2023/05/25 09:28:48;;;;;;;3.47;0.52;;;18.00;99.90;;;;;;5054930;28;20017;-74
2023/05/25 09:31:15;;;;;;;2.50;0.35;;;18.20;99.90;;;;;;5055596;28;20021;-74
2023/05/25 09:33:42;;;;;;;1.02;0.10;;;18.40;99.90;;;;;;5054857;28;20024;-74
2023/05/25 09:36:08;;;;;;;3.97;0.30;;;18.90;99.90;;;;;;5036989;28;20456;-74
2023/05/25 09:38:34;;;;;;;4.43;0.38;;;19.00;99.40;;;;;;5036972;28;20053;-74
2023/05/25 09:41:00;;;;;;;2.75;0.17;;;19.00;98.70;;;;;;5054831;28;20139;-74
2023/05/25 09:43:26;;;;;;;5.50;1.00;;;18.80;99.80;;;;;;5054761;28;20025;-74
2023/05/25 09:45:52;;;;;;;7.25;1.05;;;18.80;99.90;;;;;;5036826;28;20079;-74
2023/05/25 09:48:18;;;;;;;3.85;0.35;;;18.50;99.90;;;;;;5055046;28;20510;-74
2023/05/25 09:50:44;;;;;;;2.60;0.57;;;18.50;99.90;;;;;;5036519;28;20021;-74
2023/05/25 09:53:10;;;;;;;5.03;0.25;;;18.40;99.90;;;;;;5054477;28;20104;-74
2023/05/25 09:55:36;;;;;;;7.18;1.48;;;18.20;99.90;;;;;;5053995;28;20534;-74
2023/05/25 09:58:02;;;;;;;4.68;0.57;;;18.00;99.90;;;;;;5054168;28;20025;-74
2023/05/25 10:00:27;;;;;;;4.72;0.40;;;18.00;99.90;;;;;;5054909;28;20051;-74
2023/05/25 10:02:53;;;;;;;3.13;0.43;;;17.90;99.90;;;;;;5054285;28;20028;-74
2023/05/25 10:05:19;;;;;;;2.28;0.10;;;17.80;99.90;;;;;;5054321;28;20033;-74
2023/05/25 10:07:45;;;;;;;4.55;0.30;;;17.60;99.90;;;;;;5054287;28;20017;-74
2023/05/25 10:10:14;;;;;;;6.93;0.50;;;17.70;99.90;;;;;;5054237;28;20103;-74
2023/05/25 10:12:41;;;;;;;3.28;0.30;;;17.80;99.90;;;;;;5054710;28;20023;-74
2023/05/25 10:15:09;;;;;;;3.15;0.50;;;18.10;99.90;;;;;;5054070;28;20052;-74
2023/05/25 10:17:38;;;;;;;4.97;0.47;;;18.00;99.90;;;;;;5053887;28;20025;-74
2023/05/25 10:20:06;;;;;;;;;;;18.20;99.90;;;;;;5054553;28;20060;-74
2023/05/25 10:22:39;;;;;;;7.03;0.17;;;18.50;99.90;;;;;;5054870;28;19905;-74
2023/05/25 10:25:27;;;;;;;3.13;0.15;;;18.50;99.90;;;;;;5036308;28;20033;-74
2023/05/25 10:28:03;;;;;;;6.45;0.47;;;18.70;99.90;;;;;;5036068;28;20530;-74
2023/05/25 10:30:30;;;;;;;4.10;0.35;;;18.80;99.90;;;;;;5053735;28;20096;-74
2023/05/25 10:32:55;;;;;;;4.35;0.38;;;18.80;99.90;;;;;;5054431;28;20028;-74
2023/05/25 10:35:22;;;;;;;2.25;0.13;;;19.00;99.90;;;;;;5053797;28;20104;-74
2023/05/25 10:37:51;;;;;;;10.43;0.82;;;19.10;99.90;;;;;;5054091;28;20021;-74
2023/05/25 10:40:20;;;;;;;6.43;0.55;;;19.20;99.90;;;;;;5053590;28;20123;-74
2023/05/25 10:42:46;;;;;;;6.47;0.63;;;19.20;99.90;;;;;;5035794;28;20403;-74
2023/05/25 10:45:12;;;;;;;3.42;0.50;;;19.40;99.90;;;;;;5053892;28;20111;-74
2023/05/25 10:47:43;;;;;;;5.40;0.75;;;19.60;99.90;;;;;;5053450;28;20025;-74
2023/05/25 10:50:37;;;;;;;3.55;0.30;;;19.60;99.90;;;;;;5053444;28;20040;-74
2023/05/25 10:53:21;;;;;;;5.07;0.80;;;19.30;99.90;;;;;;5036747;28;20040;-74
2023/05/25 10:55:52;;;;;;;2.88;1.33;;;19.30;99.90;;;;;;5053533;28;20021;-74
2023/05/25 10:58:20;;;;;;;3.20;0.80;;;19.00;99.90;;;;;;5053351;28;20111;-74
2023/05/25 11:01:21;;;;;;;3.97;0.43;;;19.00;99.90;;;;;;5053632;28;20029;-74
2023/05/25 11:03:54;;;;;;;3.40;0.47;;;18.90;99.90;;;;;;4973241;28;20034;-74
2023/05/25 11:06:22;;;;;;;2.85;0.40;;;19.10;99.90;;;;;;5026411;28;20033;-74
2023/05/25 11:08:55;;;;;;;2.95;0.85;;;19.50;99.90;;;;;;5053644;28;20025;-74
2023/05/25 11:11:41;;;;;;;4.38;0.30;;;19.50;99.90;;;;;;5035264;28;20075;-74
2023/05/25 11:14:20;;;;;;;1.42;0.20;;;19.30;99.90;;;;;;5053223;28;20499;-74
2023/05/25 11:17:04;;;;;;;;;;;19.00;99.90;;;;;;5054102;28;20095;-74
2023/05/25 11:19:44;;;;;;;4.43;0.43;;;18.70;99.90;;;;;;5052937;28;20427;-74
2023/05/25 11:22:14;;;;;;;4.78;1.65;;;18.60;99.90;;;;;;5053133;28;20056;-74
2023/05/25 11:24:42;;;;;;;2.90;0.30;;;18.60;99.90;;;;;;5035179;28;20032;-74
2023/05/25 11:27:07;;;;;;;3.33;0.80;;;18.60;99.90;;;;;;5035404;28;20032;-74
2023/05/25 11:29:35;;;;;;;5.93;0.88;;;18.60;99.90;;;;;;5053088;28;20024;-74
2023/05/25 11:32:01;;;;;;;3.40;0.80;;;18.70;99.90;;;;;;5053525;28;20017;-74
2023/05/25 11:34:29;;;;;;;3.47;0.40;;;19.00;99.90;;;;;;5053497;28;20021;-74
2023/05/25 11:37:02;;;;;;;6.65;0.45;;;18.70;99.90;;;;;;5053004;28;20389;-74
2023/05/25 11:39:30;;;;;;;8.85;0.38;;;18.70;99.90;;;;;;5035043;28;20024;-74
2023/05/25 11:42:06;;;;;;;3.60;0.30;;;18.80;99.90;;;;;;5035091;28;20017;-74
2023/05/25 11:44:35;;;;;;;5.43;0.80;;;18.80;99.90;;;;;;5034995;28;20017;-74
2023/05/25 11:47:12;;;;;;;3.70;0.17;;;18.80;99.90;;;;;;5052879;28;20028;-74
2023/05/25 11:49:42;;;;;;;6.15;0.30;;;18.80;99.90;;;;;;5052865;28;20480;-74
2023/05/25 11:52:09;;;;;;;7.78;0.73;;;18.90;99.90;;;;;;5053331;28;20036;-74
2023/05/25 11:54:35;;;;;;;3.92;0.35;;;19.00;99.90;;;;;;5035036;28;20113;-74
2023/05/25 11:57:01;;;;;;;10.13;0.55;;;19.30;99.90;;;;;;5052744;28;20100;-74
2023/05/25 11:59:31;;;;;;;11.45;1.05;;;19.40;99.80;;;;;;5034780;28;20492;-74
2023/05/25 12:01:59;;;;;;;9.15;0.82;;;19.50;99.50;;;;;;5053301;28;20086;-74
2023/05/25 12:04:25;;;;;;;6.95;0.80;;;19.70;99.90;;;;;;5052648;28;20128;-74
2023/05/25 12:06:51;;;;;;;1.50;0.22;;;19.90;98.60;;;;;;5034828;28;20045;-74
2023/05/25 12:09:21;;;;;;;1.27;0.10;;;20.00;97.00;;;;;;5052552;28;20103;-74
2023/05/25 12:11:47;;;;;;;0.80;0.10;;;20.30;97.70;;;;;;5052756;28;20021;-74
2023/05/25 12:14:13;;;;;;;1.25;0.00;;;20.90;96.10;;;;;;5052735;28;20025;-74
2023/05/25 12:16:40;;;;;;;1.17;0.03;;;21.30;93.70;;;;;;5052661;28;20051;-74
2023/05/25 12:19:07;;;;;;;0.63;0.30;;;21.70;93.00;;;;;;5053031;28;20035;-74
2023/05/25 12:21:33;;;;;;;3.00;0.57;;;21.70;92.70;;;;;;5056208;28;20029;-74
2023/05/25 12:24:00;;;;;;;3.53;0.28;;;21.60;91.50;;;;;;5056179;28;20427;-74
2023/05/25 12:26:26;;;;;;;4.68;0.75;;;21.40;92.50;;;;;;5038302;28;20027;-74
2023/05/25 12:29:03;;;;;;;2.35;0.25;;;21.10;93.20;;;;;;5055968;28;20546;-74
2023/05/25 12:31:31;;;;;;;2.50;0.60;;;21.10;93.20;;;;;;5038362;28;20448;-74
2023/05/25 12:34:06;;;;;;;3.03;0.28;;;21.10;92.60;;;;;;5038140;28;20067;-74
2023/05/25 12:36:36;;;;;;;4.47;0.10;;;21.00;93.40;;;;;;5055956;28;20029;-74
2023/05/25 12:39:01;;;;;;;5.20;0.70;;;20.80;91.90;;;;;;5055851;28;20514;-74
2023/05/25 12:41:27;;;;;;;4.88;0.15;;;20.80;92.20;;;;;;5055793;28;20056;-74
2023/05/25 12:43:52;;;;;;;5.88;0.20;;;20.70;92.80;;;;;;5037863;28;20035;-74
2023/05/25 12:46:25;;;;;;;5.57;0.50;;;20.70;92.80;;;;;;5037825;28;20063;-74
2023/05/25 12:48:50;;;;;;;4.57;0.60;;;20.50;92.80;;;;;;5055616;28;20021;-74
2023/05/25 12:51:16;;;;;;;1.50;0.43;;;20.30;92.80;;;;;;5037763;28;20379;-74